< < Back
Terminal Aerodrome Forecast


Current Version              Previous Versions:   1  2  3  4  5  6  7  8  9  

Terminal Aerodrome Forecast

840
FTUS42 KTAE 310525
TAFDHN
TAF
KDHN 310525Z 3106/0106 33005KT P6SM SCT100 BKN250
     FM311000 25003KT 6SM BR SCT003
     FM311400 23006KT P6SM SCT025
     FM312100 23008KT P6SM VCTS SCT040CB
     FM010200 20005KT P6SM SCT040 BKN100=

Latest METAR

738
SAUS70 KWBC 311100 RRE
MTRDHN
METAR KDHN 311053Z 01003KT 5SM BR CLR 24/23 A2995 RMK AO2 SLP137
T02390233


USA.gov is the U.S. government's official web portal to all federal, state and local government web resources and services.